sensor_id;sensor_type;location;lat;lon;timestamp;P1;durP1;ratioP1;P2;durP2;ratioP2
59181;SDS011;45293;44.606;21.176;2022-08-21T00:00:26;26.60;;;20.50;;
59181;SDS011;45293;44.606;21.176;2022-08-21T00:03:02;30.83;;;20.65;;
59181;SDS011;45293;44.606;21.176;2022-08-21T00:05:29;26.33;;;20.52;;
59181;SDS011;45293;44.606;21.176;2022-08-21T00:07:56;30.52;;;22.15;;
59181;SDS011;45293;44.606;21.176;2022-08-21T00:10:22;31.48;;;22.77;;
59181;SDS011;45293;44.606;21.176;2022-08-21T00:12:48;25.23;;;20.75;;
59181;SDS011;45293;44.606;21.176;2022-08-21T00:15:16;31.45;;;19.00;;
59181;SDS011;45293;44.606;21.176;2022-08-21T00:17:42;27.73;;;18.08;;
59181;SDS011;45293;44.606;21.176;2022-08-21T00:20:09;32.17;;;19.13;;
59181;SDS011;45293;44.606;21.176;2022-08-21T00:22:36;34.83;;;18.83;;
59181;SDS011;45293;44.606;21.176;2022-08-21T00:25:06;27.35;;;17.95;;
59181;SDS011;45293;44.606;21.176;2022-08-21T00:27:33;29.80;;;20.30;;
59181;SDS011;45293;44.606;21.176;2022-08-21T00:29:59;29.20;;;20.65;;
59181;SDS011;45293;44.606;21.176;2022-08-21T00:32:26;30.02;;;20.30;;
59181;SDS011;45293;44.606;21.176;2022-08-21T00:34:53;32.55;;;21.85;;
59181;SDS011;45293;44.606;21.176;2022-08-21T00:37:19;37.53;;;22.08;;
59181;SDS011;45293;44.606;21.176;2022-08-21T00:39:45;41.50;;;22.50;;
59181;SDS011;45293;44.606;21.176;2022-08-21T00:42:12;36.85;;;22.60;;
59181;SDS011;45293;44.606;21.176;2022-08-21T00:44:49;31.55;;;20.90;;
59181;SDS011;45293;44.606;21.176;2022-08-21T00:47:16;35.72;;;22.65;;
59181;SDS011;45293;44.606;21.176;2022-08-21T00:49:43;41.22;;;22.05;;
59181;SDS011;45293;44.606;21.176;2022-08-21T00:52:11;41.65;;;22.90;;
59181;SDS011;45293;44.606;21.176;2022-08-21T00:54:39;44.42;;;22.80;;
59181;SDS011;45293;44.606;21.176;2022-08-21T00:57:10;38.63;;;22.50;;
59181;SDS011;45293;44.606;21.176;2022-08-21T00:59:38;30.33;;;21.77;;
59181;SDS011;45293;44.606;21.176;2022-08-21T01:02:06;31.70;;;22.85;;
59181;SDS011;45293;44.606;21.176;2022-08-21T01:04:33;32.53;;;22.58;;
59181;SDS011;45293;44.606;21.176;2022-08-21T01:06:59;33.70;;;23.23;;
59181;SDS011;45293;44.606;21.176;2022-08-21T01:09:25;32.35;;;23.73;;
59181;SDS011;45293;44.606;21.176;2022-08-21T01:11:51;32.20;;;23.98;;
59181;SDS011;45293;44.606;21.176;2022-08-21T01:14:18;40.28;;;24.13;;
59181;SDS011;45293;44.606;21.176;2022-08-21T01:16:45;32.95;;;24.00;;
59181;SDS011;45293;44.606;21.176;2022-08-21T01:19:12;41.42;;;22.85;;
59181;SDS011;45293;44.606;21.176;2022-08-21T01:21:38;35.20;;;25.02;;
59181;SDS011;45293;44.606;21.176;2022-08-21T01:24:05;34.45;;;23.90;;
59181;SDS011;45293;44.606;21.176;2022-08-21T01:26:32;43.33;;;24.67;;
59181;SDS011;45293;44.606;21.176;2022-08-21T01:29:05;42.80;;;26.20;;
59181;SDS011;45293;44.606;21.176;2022-08-21T01:31:32;39.08;;;25.80;;
59181;SDS011;45293;44.606;21.176;2022-08-21T01:33:59;38.17;;;26.02;;
59181;SDS011;45293;44.606;21.176;2022-08-21T01:36:25;35.75;;;25.35;;
59181;SDS011;45293;44.606;21.176;2022-08-21T01:38:51;37.90;;;26.48;;
59181;SDS011;45293;44.606;21.176;2022-08-21T01:41:18;39.60;;;26.60;;
59181;SDS011;45293;44.606;21.176;2022-08-21T01:43:44;37.05;;;26.30;;
59181;SDS011;45293;44.606;21.176;2022-08-21T01:46:11;33.08;;;23.70;;
59181;SDS011;45293;44.606;21.176;2022-08-21T01:48:37;37.85;;;26.83;;
59181;SDS011;45293;44.606;21.176;2022-08-21T01:51:03;41.08;;;27.08;;
59181;SDS011;45293;44.606;21.176;2022-08-21T01:53:30;45.35;;;27.60;;
59181;SDS011;45293;44.606;21.176;2022-08-21T01:55:56;39.85;;;26.88;;
59181;SDS011;45293;44.606;21.176;2022-08-21T01:58:22;41.17;;;27.00;;
59181;SDS011;45293;44.606;21.176;2022-08-21T02:00:48;39.85;;;27.85;;
59181;SDS011;45293;44.606;21.176;2022-08-21T02:03:14;35.42;;;26.23;;
59181;SDS011;45293;44.606;21.176;2022-08-21T02:05:41;32.30;;;24.90;;
59181;SDS011;45293;44.606;21.176;2022-08-21T02:08:07;48.47;;;26.95;;
59181;SDS011;45293;44.606;21.176;2022-08-21T02:10:33;43.63;;;28.60;;
59181;SDS011;45293;44.606;21.176;2022-08-21T02:12:59;40.45;;;28.83;;
59181;SDS011;45293;44.606;21.176;2022-08-21T02:15:26;45.65;;;26.88;;
59181;SDS011;45293;44.606;21.176;2022-08-21T02:17:53;35.65;;;27.45;;
59181;SDS011;45293;44.606;21.176;2022-08-21T02:20:22;50.28;;;27.23;;
59181;SDS011;45293;44.606;21.176;2022-08-21T02:22:48;45.38;;;26.25;;
59181;SDS011;45293;44.606;21.176;2022-08-21T02:25:15;44.95;;;27.85;;
59181;SDS011;45293;44.606;21.176;2022-08-21T02:27:42;56.42;;;29.23;;
59181;SDS011;45293;44.606;21.176;2022-08-21T02:30:12;50.70;;;28.73;;
59181;SDS011;45293;44.606;21.176;2022-08-21T02:32:39;44.17;;;28.25;;
59181;SDS011;45293;44.606;21.176;2022-08-21T02:35:06;37.97;;;26.65;;
59181;SDS011;45293;44.606;21.176;2022-08-21T02:37:32;45.00;;;27.90;;
59181;SDS011;45293;44.606;21.176;2022-08-21T02:39:59;46.55;;;26.17;;
59181;SDS011;45293;44.606;21.176;2022-08-21T02:42:26;39.53;;;24.52;;
59181;SDS011;45293;44.606;21.176;2022-08-21T02:44:52;42.78;;;25.42;;
59181;SDS011;45293;44.606;21.176;2022-08-21T02:47:18;32.65;;;23.45;;
59181;SDS011;45293;44.606;21.176;2022-08-21T02:49:44;36.88;;;22.50;;
59181;SDS011;45293;44.606;21.176;2022-08-21T02:52:10;39.58;;;22.27;;
59181;SDS011;45293;44.606;21.176;2022-08-21T02:54:36;39.65;;;24.02;;
59181;SDS011;45293;44.606;21.176;2022-08-21T02:57:02;34.40;;;23.77;;
59181;SDS011;45293;44.606;21.176;2022-08-21T02:59:29;27.05;;;18.80;;
59181;SDS011;45293;44.606;21.176;2022-08-21T03:01:55;30.98;;;20.77;;
59181;SDS011;45293;44.606;21.176;2022-08-21T03:04:21;32.13;;;19.05;;
59181;SDS011;45293;44.606;21.176;2022-08-21T03:06:47;30.95;;;19.08;;
59181;SDS011;45293;44.606;21.176;2022-08-21T03:09:13;36.53;;;19.58;;
59181;SDS011;45293;44.606;21.176;2022-08-21T03:11:39;27.17;;;17.23;;
59181;SDS011;45293;44.606;21.176;2022-08-21T03:14:05;27.48;;;17.05;;
59181;SDS011;45293;44.606;21.176;2022-08-21T03:16:31;24.70;;;16.70;;
59181;SDS011;45293;44.606;21.176;2022-08-21T03:18:57;31.45;;;15.32;;
59181;SDS011;45293;44.606;21.176;2022-08-21T03:21:24;26.80;;;15.75;;
59181;SDS011;45293;44.606;21.176;2022-08-21T03:23:50;24.00;;;14.48;;
59181;SDS011;45293;44.606;21.176;2022-08-21T03:26:19;25.98;;;14.68;;
59181;SDS011;45293;44.606;21.176;2022-08-21T03:28:46;23.83;;;14.20;;
59181;SDS011;45293;44.606;21.176;2022-08-21T03:31:12;25.08;;;15.43;;
59181;SDS011;45293;44.606;21.176;2022-08-21T03:33:38;22.90;;;14.27;;
59181;SDS011;45293;44.606;21.176;2022-08-21T03:36:05;25.60;;;13.43;;
59181;SDS011;45293;44.606;21.176;2022-08-21T03:38:33;21.00;;;13.23;;
59181;SDS011;45293;44.606;21.176;2022-08-21T03:41:00;22.55;;;14.30;;
59181;SDS011;45293;44.606;21.176;2022-08-21T03:43:27;26.08;;;15.07;;
59181;SDS011;45293;44.606;21.176;2022-08-21T03:45:53;28.02;;;14.93;;
59181;SDS011;45293;44.606;21.176;2022-08-21T03:48:20;28.77;;;15.23;;
59181;SDS011;45293;44.606;21.176;2022-08-21T03:50:46;23.48;;;13.52;;
59181;SDS011;45293;44.606;21.176;2022-08-21T03:53:14;24.13;;;13.63;;
59181;SDS011;45293;44.606;21.176;2022-08-21T03:55:41;22.42;;;13.38;;
59181;SDS011;45293;44.606;21.176;2022-08-21T03:58:07;18.40;;;12.55;;
59181;SDS011;45293;44.606;21.176;2022-08-21T04:00:33;22.40;;;13.15;;
59181;SDS011;45293;44.606;21.176;2022-08-21T04:03:00;20.30;;;12.73;;
59181;SDS011;45293;44.606;21.176;2022-08-21T04:05:26;19.98;;;13.35;;
59181;SDS011;45293;44.606;21.176;2022-08-21T04:10:21;12.25;;;8.55;;
59181;SDS011;45293;44.606;21.176;2022-08-21T04:12:49;15.00;;;7.85;;
59181;SDS011;45293;44.606;21.176;2022-08-21T04:15:16;15.25;;;6.85;;
59181;SDS011;45293;44.606;21.176;2022-08-21T04:17:42;8.80;;;5.78;;
59181;SDS011;45293;44.606;21.176;2022-08-21T04:20:08;8.45;;;4.90;;
59181;SDS011;45293;44.606;21.176;2022-08-21T04:22:34;7.35;;;4.38;;
59181;SDS011;45293;44.606;21.176;2022-08-21T04:25:00;6.22;;;4.45;;
59181;SDS011;45293;44.606;21.176;2022-08-21T04:27:26;4.88;;;3.45;;
59181;SDS011;45293;44.606;21.176;2022-08-21T04:29:52;6.80;;;3.30;;
59181;SDS011;45293;44.606;21.176;2022-08-21T04:32:25;4.22;;;2.97;;
59181;SDS011;45293;44.606;21.176;2022-08-21T04:34:57;6.85;;;3.15;;
59181;SDS011;45293;44.606;21.176;2022-08-21T04:37:23;6.35;;;3.42;;
59181;SDS011;45293;44.606;21.176;2022-08-21T04:39:49;5.00;;;2.78;;
59181;SDS011;45293;44.606;21.176;2022-08-21T04:42:15;5.18;;;2.58;;
59181;SDS011;45293;44.606;21.176;2022-08-21T04:44:42;4.88;;;3.33;;
59181;SDS011;45293;44.606;21.176;2022-08-21T04:47:08;4.82;;;2.97;;
59181;SDS011;45293;44.606;21.176;2022-08-21T04:49:34;4.47;;;2.85;;
59181;SDS011;45293;44.606;21.176;2022-08-21T04:52:00;4.53;;;3.00;;
59181;SDS011;45293;44.606;21.176;2022-08-21T04:54:27;5.63;;;3.08;;
59181;SDS011;45293;44.606;21.176;2022-08-21T04:59:21;6.72;;;2.88;;
59181;SDS011;45293;44.606;21.176;2022-08-21T05:01:47;3.50;;;3.20;;
59181;SDS011;45293;44.606;21.176;2022-08-21T05:04:15;3.60;;;2.92;;
59181;SDS011;45293;44.606;21.176;2022-08-21T05:06:42;3.75;;;2.85;;
59181;SDS011;45293;44.606;21.176;2022-08-21T05:09:09;4.55;;;2.45;;
59181;SDS011;45293;44.606;21.176;2022-08-21T05:11:38;7.47;;;3.05;;
59181;SDS011;45293;44.606;21.176;2022-08-21T05:14:05;4.30;;;3.00;;
59181;SDS011;45293;44.606;21.176;2022-08-21T05:16:31;3.22;;;2.65;;
59181;SDS011;45293;44.606;21.176;2022-08-21T05:18:58;4.60;;;2.75;;
59181;SDS011;45293;44.606;21.176;2022-08-21T05:21:24;5.75;;;3.00;;
59181;SDS011;45293;44.606;21.176;2022-08-21T05:23:50;11.15;;;3.47;;
59181;SDS011;45293;44.606;21.176;2022-08-21T05:26:16;5.55;;;3.15;;
59181;SDS011;45293;44.606;21.176;2022-08-21T05:28:42;5.43;;;3.25;;
59181;SDS011;45293;44.606;21.176;2022-08-21T05:31:08;6.68;;;3.03;;
59181;SDS011;45293;44.606;21.176;2022-08-21T05:33:34;7.20;;;3.03;;
59181;SDS011;45293;44.606;21.176;2022-08-21T05:36:01;6.05;;;3.20;;
59181;SDS011;45293;44.606;21.176;2022-08-21T05:38:27;5.38;;;3.45;;
59181;SDS011;45293;44.606;21.176;2022-08-21T05:40:53;6.15;;;3.50;;
59181;SDS011;45293;44.606;21.176;2022-08-21T05:43:19;5.82;;;3.55;;
59181;SDS011;45293;44.606;21.176;2022-08-21T05:45:46;4.90;;;3.72;;
59181;SDS011;45293;44.606;21.176;2022-08-21T05:48:14;6.55;;;3.35;;
59181;SDS011;45293;44.606;21.176;2022-08-21T05:50:41;7.85;;;3.72;;
59181;SDS011;45293;44.606;21.176;2022-08-21T05:53:07;7.10;;;3.47;;
59181;SDS011;45293;44.606;21.176;2022-08-21T05:55:35;5.32;;;4.03;;
59181;SDS011;45293;44.606;21.176;2022-08-21T05:58:02;8.15;;;3.55;;
59181;SDS011;45293;44.606;21.176;2022-08-21T06:00:28;6.32;;;3.53;;
59181;SDS011;45293;44.606;21.176;2022-08-21T06:02:54;6.20;;;3.55;;
59181;SDS011;45293;44.606;21.176;2022-08-21T06:05:20;9.18;;;3.95;;
59181;SDS011;45293;44.606;21.176;2022-08-21T06:07:46;8.18;;;4.68;;
59181;SDS011;45293;44.606;21.176;2022-08-21T06:10:12;14.05;;;4.47;;
59181;SDS011;45293;44.606;21.176;2022-08-21T06:12:38;6.13;;;4.32;;
59181;SDS011;45293;44.606;21.176;2022-08-21T06:15:05;9.30;;;4.72;;
59181;SDS011;45293;44.606;21.176;2022-08-21T06:17:31;6.07;;;4.18;;
59181;SDS011;45293;44.606;21.176;2022-08-21T06:19:57;5.90;;;4.22;;
59181;SDS011;45293;44.606;21.176;2022-08-21T06:22:23;11.52;;;5.35;;
59181;SDS011;45293;44.606;21.176;2022-08-21T06:24:49;11.60;;;4.88;;
59181;SDS011;45293;44.606;21.176;2022-08-21T06:27:15;9.90;;;6.45;;
59181;SDS011;45293;44.606;21.176;2022-08-21T06:29:43;16.63;;;6.00;;
59181;SDS011;45293;44.606;21.176;2022-08-21T06:32:11;9.73;;;6.22;;
59181;SDS011;45293;44.606;21.176;2022-08-21T06:34:37;12.88;;;5.68;;
59181;SDS011;45293;44.606;21.176;2022-08-21T06:37:04;16.50;;;5.97;;
59181;SDS011;45293;44.606;21.176;2022-08-21T06:39:30;16.60;;;7.53;;
59181;SDS011;45293;44.606;21.176;2022-08-21T06:41:56;14.07;;;7.40;;
59181;SDS011;45293;44.606;21.176;2022-08-21T06:44:22;11.88;;;7.07;;
59181;SDS011;45293;44.606;21.176;2022-08-21T06:46:48;11.30;;;7.13;;
59181;SDS011;45293;44.606;21.176;2022-08-21T06:49:14;10.98;;;7.35;;
59181;SDS011;45293;44.606;21.176;2022-08-21T06:51:40;15.90;;;8.38;;
59181;SDS011;45293;44.606;21.176;2022-08-21T06:54:07;16.73;;;8.10;;
59181;SDS011;45293;44.606;21.176;2022-08-21T06:56:33;15.35;;;8.52;;
59181;SDS011;45293;44.606;21.176;2022-08-21T06:59:02;15.88;;;9.40;;
59181;SDS011;45293;44.606;21.176;2022-08-21T07:01:28;17.83;;;10.57;;
59181;SDS011;45293;44.606;21.176;2022-08-21T07:03:54;15.98;;;8.98;;
59181;SDS011;45293;44.606;21.176;2022-08-21T07:06:20;14.45;;;8.65;;
59181;SDS011;45293;44.606;21.176;2022-08-21T07:08:47;16.63;;;10.60;;
59181;SDS011;45293;44.606;21.176;2022-08-21T07:11:14;19.92;;;10.25;;
59181;SDS011;45293;44.606;21.176;2022-08-21T07:13:42;15.30;;;8.95;;
59181;SDS011;45293;44.606;21.176;2022-08-21T07:16:08;21.52;;;11.65;;
59181;SDS011;45293;44.606;21.176;2022-08-21T07:18:35;16.30;;;9.38;;
59181;SDS011;45293;44.606;21.176;2022-08-21T07:21:02;16.52;;;10.57;;
59181;SDS011;45293;44.606;21.176;2022-08-21T07:23:30;16.98;;;9.48;;
59181;SDS011;45293;44.606;21.176;2022-08-21T07:25:57;14.00;;;8.68;;
59181;SDS011;45293;44.606;21.176;2022-08-21T07:28:24;15.43;;;8.95;;
59181;SDS011;45293;44.606;21.176;2022-08-21T07:30:51;14.63;;;9.73;;
59181;SDS011;45293;44.606;21.176;2022-08-21T07:33:17;11.38;;;8.20;;
59181;SDS011;45293;44.606;21.176;2022-08-21T07:35:44;12.93;;;9.15;;
59181;SDS011;45293;44.606;21.176;2022-08-21T07:38:10;21.42;;;10.15;;
59181;SDS011;45293;44.606;21.176;2022-08-21T07:40:36;18.77;;;11.00;;
59181;SDS011;45293;44.606;21.176;2022-08-21T07:43:02;17.77;;;10.43;;
59181;SDS011;45293;44.606;21.176;2022-08-21T07:45:28;20.33;;;10.38;;
59181;SDS011;45293;44.606;21.176;2022-08-21T07:47:54;15.40;;;10.50;;
59181;SDS011;45293;44.606;21.176;2022-08-21T07:50:21;15.93;;;11.23;;
59181;SDS011;45293;44.606;21.176;2022-08-21T07:52:47;17.52;;;11.07;;
59181;SDS011;45293;44.606;21.176;2022-08-21T07:55:15;21.50;;;11.43;;
59181;SDS011;45293;44.606;21.176;2022-08-21T07:57:42;15.73;;;10.48;;
59181;SDS011;45293;44.606;21.176;2022-08-21T08:00:09;19.70;;;11.32;;
59181;SDS011;45293;44.606;21.176;2022-08-21T08:02:36;21.45;;;12.73;;
59181;SDS011;45293;44.606;21.176;2022-08-21T08:05:03;21.70;;;12.13;;
59181;SDS011;45293;44.606;21.176;2022-08-21T08:07:29;17.67;;;11.90;;
59181;SDS011;45293;44.606;21.176;2022-08-21T08:09:55;21.25;;;12.75;;
59181;SDS011;45293;44.606;21.176;2022-08-21T08:12:21;19.45;;;12.55;;
59181;SDS011;45293;44.606;21.176;2022-08-21T08:14:47;16.38;;;12.60;;
59181;SDS011;45293;44.606;21.176;2022-08-21T08:17:13;21.98;;;13.05;;
59181;SDS011;45293;44.606;21.176;2022-08-21T08:19:39;20.15;;;12.40;;
59181;SDS011;45293;44.606;21.176;2022-08-21T08:22:13;17.38;;;12.25;;
59181;SDS011;45293;44.606;21.176;2022-08-21T08:27:05;25.98;;;14.02;;
59181;SDS011;45293;44.606;21.176;2022-08-21T08:29:31;23.10;;;13.13;;
59181;SDS011;45293;44.606;21.176;2022-08-21T08:31:57;18.15;;;12.63;;
59181;SDS011;45293;44.606;21.176;2022-08-21T08:34:24;18.98;;;12.98;;
59181;SDS011;45293;44.606;21.176;2022-08-21T08:36:50;24.00;;;13.32;;
59181;SDS011;45293;44.606;21.176;2022-08-21T08:39:16;16.50;;;13.57;;
59181;SDS011;45293;44.606;21.176;2022-08-21T08:41:42;18.83;;;13.73;;
59181;SDS011;45293;44.606;21.176;2022-08-21T08:44:10;18.98;;;14.00;;
59181;SDS011;45293;44.606;21.176;2022-08-21T08:46:46;25.25;;;13.73;;
59181;SDS011;45293;44.606;21.176;2022-08-21T08:49:15;23.55;;;15.20;;
59181;SDS011;45293;44.606;21.176;2022-08-21T08:51:44;18.80;;;14.77;;
59181;SDS011;45293;44.606;21.176;2022-08-21T08:54:13;21.00;;;13.68;;
59181;SDS011;45293;44.606;21.176;2022-08-21T08:56:41;20.33;;;14.45;;
59181;SDS011;45293;44.606;21.176;2022-08-21T08:59:08;20.15;;;14.40;;
59181;SDS011;45293;44.606;21.176;2022-08-21T09:01:37;27.02;;;14.45;;
59181;SDS011;45293;44.606;21.176;2022-08-21T09:04:03;19.33;;;14.63;;
59181;SDS011;45293;44.606;21.176;2022-08-21T09:16:55;21.20;;;14.20;;
59181;SDS011;45293;44.606;21.176;2022-08-21T09:24:33;22.85;;;13.38;;
59181;SDS011;45293;44.606;21.176;2022-08-21T09:27:12;21.10;;;13.20;;
59181;SDS011;45293;44.606;21.176;2022-08-21T09:29:43;21.98;;;13.75;;
59181;SDS011;45293;44.606;21.176;2022-08-21T09:34:54;26.15;;;15.45;;
59181;SDS011;45293;44.606;21.176;2022-08-21T09:37:20;32.97;;;15.55;;
59181;SDS011;45293;44.606;21.176;2022-08-21T09:39:46;32.63;;;15.93;;
59181;SDS011;45293;44.606;21.176;2022-08-21T09:42:20;32.63;;;16.27;;
59181;SDS011;45293;44.606;21.176;2022-08-21T09:44:47;29.60;;;17.13;;
59181;SDS011;45293;44.606;21.176;2022-08-21T09:47:13;27.20;;;17.35;;
59181;SDS011;45293;44.606;21.176;2022-08-21T09:49:40;28.45;;;17.77;;
59181;SDS011;45293;44.606;21.176;2022-08-21T09:52:17;27.73;;;17.42;;
59181;SDS011;45293;44.606;21.176;2022-08-21T09:54:45;26.30;;;16.42;;
59181;SDS011;45293;44.606;21.176;2022-08-21T09:57:23;26.02;;;16.23;;
59181;SDS011;45293;44.606;21.176;2022-08-21T10:02:48;26.20;;;16.77;;
59181;SDS011;45293;44.606;21.176;2022-08-21T10:05:16;20.33;;;15.02;;
59181;SDS011;45293;44.606;21.176;2022-08-21T10:07:43;20.50;;;15.98;;
59181;SDS011;45293;44.606;21.176;2022-08-21T10:18:15;24.45;;;16.75;;
59181;SDS011;45293;44.606;21.176;2022-08-21T10:20:45;20.13;;;15.65;;
59181;SDS011;45293;44.606;21.176;2022-08-21T10:23:21;27.85;;;16.75;;
59181;SDS011;45293;44.606;21.176;2022-08-21T10:26:02;22.48;;;16.17;;
59181;SDS011;45293;44.606;21.176;2022-08-21T10:28:36;22.85;;;16.67;;
59181;SDS011;45293;44.606;21.176;2022-08-21T10:31:38;24.85;;;15.57;;
59181;SDS011;45293;44.606;21.176;2022-08-21T10:34:13;23.88;;;16.85;;
59181;SDS011;45293;44.606;21.176;2022-08-21T10:39:34;21.52;;;15.80;;
59181;SDS011;45293;44.606;21.176;2022-08-21T10:44:56;22.00;;;14.93;;
59181;SDS011;45293;44.606;21.176;2022-08-21T10:47:35;24.70;;;16.67;;
59181;SDS011;45293;44.606;21.176;2022-08-21T10:50:25;18.15;;;13.63;;
59181;SDS011;45293;44.606;21.176;2022-08-21T10:55:31;20.05;;;14.07;;
59181;SDS011;45293;44.606;21.176;2022-08-21T10:57:58;17.85;;;13.52;;
59181;SDS011;45293;44.606;21.176;2022-08-21T11:00:30;16.88;;;12.55;;
59181;SDS011;45293;44.606;21.176;2022-08-21T11:06:14;20.60;;;12.93;;
59181;SDS011;45293;44.606;21.176;2022-08-21T11:08:43;16.98;;;13.98;;
59181;SDS011;45293;44.606;21.176;2022-08-21T11:13:44;17.42;;;12.95;;
59181;SDS011;45293;44.606;21.176;2022-08-21T11:16:26;24.05;;;14.05;;
59181;SDS011;45293;44.606;21.176;2022-08-21T11:21:57;22.38;;;14.55;;
59181;SDS011;45293;44.606;21.176;2022-08-21T11:29:34;20.17;;;13.15;;
59181;SDS011;45293;44.606;21.176;2022-08-21T11:52:35;18.33;;;10.93;;
59181;SDS011;45293;44.606;21.176;2022-08-21T11:55:12;35.92;;;11.13;;
59181;SDS011;45293;44.606;21.176;2022-08-21T12:00:19;17.90;;;10.55;;
59181;SDS011;45293;44.606;21.176;2022-08-21T12:02:51;27.73;;;11.15;;
59181;SDS011;45293;44.606;21.176;2022-08-21T12:05:30;18.45;;;9.82;;
59181;SDS011;45293;44.606;21.176;2022-08-21T12:08:01;19.52;;;11.18;;
59181;SDS011;45293;44.606;21.176;2022-08-21T12:10:36;24.73;;;11.77;;
59181;SDS011;45293;44.606;21.176;2022-08-21T12:13:27;22.23;;;11.65;;
59181;SDS011;45293;44.606;21.176;2022-08-21T12:15:51;28.85;;;12.07;;
59181;SDS011;45293;44.606;21.176;2022-08-21T12:18:28;23.00;;;14.82;;
59181;SDS011;45293;44.606;21.176;2022-08-21T12:26:27;17.85;;;13.73;;
59181;SDS011;45293;44.606;21.176;2022-08-21T12:29:55;20.60;;;14.38;;
59181;SDS011;45293;44.606;21.176;2022-08-21T12:31:51;22.40;;;14.07;;
59181;SDS011;45293;44.606;21.176;2022-08-21T12:34:17;17.83;;;11.63;;
59181;SDS011;45293;44.606;21.176;2022-08-21T12:36:48;14.70;;;10.60;;
59181;SDS011;45293;44.606;21.176;2022-08-21T12:39:17;18.42;;;11.90;;
59181;SDS011;45293;44.606;21.176;2022-08-21T12:41:48;15.70;;;11.73;;
59181;SDS011;45293;44.606;21.176;2022-08-21T12:44:17;17.00;;;10.98;;
59181;SDS011;45293;44.606;21.176;2022-08-21T12:49:52;27.83;;;15.50;;
59181;SDS011;45293;44.606;21.176;2022-08-21T12:52:24;14.95;;;10.25;;
59181;SDS011;45293;44.606;21.176;2022-08-21T12:54:53;13.38;;;9.35;;
59181;SDS011;45293;44.606;21.176;2022-08-21T12:57:21;14.13;;;8.88;;
59181;SDS011;45293;44.606;21.176;2022-08-21T12:59:51;14.55;;;8.85;;
59181;SDS011;45293;44.606;21.176;2022-08-21T13:02:18;17.70;;;9.45;;
59181;SDS011;45293;44.606;21.176;2022-08-21T13:04:45;13.40;;;9.00;;
59181;SDS011;45293;44.606;21.176;2022-08-21T13:07:15;11.15;;;8.60;;
59181;SDS011;45293;44.606;21.176;2022-08-21T13:09:49;12.88;;;9.27;;
59181;SDS011;45293;44.606;21.176;2022-08-21T13:12:17;10.48;;;9.10;;
59181;SDS011;45293;44.606;21.176;2022-08-21T13:14:44;14.88;;;8.10;;
59181;SDS011;45293;44.606;21.176;2022-08-21T13:17:12;11.02;;;8.63;;
59181;SDS011;45293;44.606;21.176;2022-08-21T13:19:40;12.63;;;8.10;;
59181;SDS011;45293;44.606;21.176;2022-08-21T13:22:12;11.90;;;7.18;;
59181;SDS011;45293;44.606;21.176;2022-08-21T13:24:38;10.33;;;6.83;;
59181;SDS011;45293;44.606;21.176;2022-08-21T13:27:15;9.20;;;7.65;;
59181;SDS011;45293;44.606;21.176;2022-08-21T13:29:42;9.30;;;6.80;;
59181;SDS011;45293;44.606;21.176;2022-08-21T13:32:16;9.95;;;6.30;;
59181;SDS011;45293;44.606;21.176;2022-08-21T13:34:44;11.10;;;6.18;;
59181;SDS011;45293;44.606;21.176;2022-08-21T13:37:10;11.07;;;5.95;;
59181;SDS011;45293;44.606;21.176;2022-08-21T13:39:37;8.00;;;6.07;;
59181;SDS011;45293;44.606;21.176;2022-08-21T13:42:04;10.10;;;6.55;;
59181;SDS011;45293;44.606;21.176;2022-08-21T13:47:01;11.50;;;5.60;;
59181;SDS011;45293;44.606;21.176;2022-08-21T13:49:32;9.00;;;5.60;;
59181;SDS011;45293;44.606;21.176;2022-08-21T13:51:59;7.80;;;4.40;;
59181;SDS011;45293;44.606;21.176;2022-08-21T13:54:26;5.93;;;3.70;;
59181;SDS011;45293;44.606;21.176;2022-08-21T13:56:53;4.22;;;3.33;;
59181;SDS011;45293;44.606;21.176;2022-08-21T13:59:24;7.80;;;3.45;;
59181;SDS011;45293;44.606;21.176;2022-08-21T14:02:01;9.90;;;4.93;;
59181;SDS011;45293;44.606;21.176;2022-08-21T14:04:35;4.63;;;2.83;;
59181;SDS011;45293;44.606;21.176;2022-08-21T14:07:02;4.72;;;2.60;;
59181;SDS011;45293;44.606;21.176;2022-08-21T14:11:54;2.33;;;1.88;;
59181;SDS011;45293;44.606;21.176;2022-08-21T14:14:29;5.13;;;2.55;;
59181;SDS011;45293;44.606;21.176;2022-08-21T14:16:57;3.05;;;2.10;;
59181;SDS011;45293;44.606;21.176;2022-08-21T14:19:25;3.10;;;2.63;;
59181;SDS011;45293;44.606;21.176;2022-08-21T14:21:52;5.88;;;2.60;;
59181;SDS011;45293;44.606;21.176;2022-08-21T14:26:49;6.72;;;4.38;;
59181;SDS011;45293;44.606;21.176;2022-08-21T14:29:17;5.82;;;3.47;;
59181;SDS011;45293;44.606;21.176;2022-08-21T14:31:48;7.78;;;4.28;;
59181;SDS011;45293;44.606;21.176;2022-08-21T14:34:14;9.68;;;4.55;;
59181;SDS011;45293;44.606;21.176;2022-08-21T14:36:42;7.07;;;4.80;;
59181;SDS011;45293;44.606;21.176;2022-08-21T14:39:08;8.27;;;4.75;;
59181;SDS011;45293;44.606;21.176;2022-08-21T14:41:34;5.70;;;5.10;;
59181;SDS011;45293;44.606;21.176;2022-08-21T14:44:02;8.95;;;5.32;;
59181;SDS011;45293;44.606;21.176;2022-08-21T14:46:29;8.65;;;5.30;;
59181;SDS011;45293;44.606;21.176;2022-08-21T14:48:57;6.65;;;5.07;;
59181;SDS011;45293;44.606;21.176;2022-08-21T14:51:23;9.15;;;5.28;;
59181;SDS011;45293;44.606;21.176;2022-08-21T14:53:49;8.43;;;6.13;;
59181;SDS011;45293;44.606;21.176;2022-08-21T14:56:15;7.53;;;5.40;;
59181;SDS011;45293;44.606;21.176;2022-08-21T14:58:44;9.18;;;5.13;;
59181;SDS011;45293;44.606;21.176;2022-08-21T15:01:11;11.43;;;5.10;;
59181;SDS011;45293;44.606;21.176;2022-08-21T15:03:38;7.22;;;4.90;;
59181;SDS011;45293;44.606;21.176;2022-08-21T15:06:04;6.88;;;5.15;;
59181;SDS011;45293;44.606;21.176;2022-08-21T15:08:31;12.80;;;5.22;;
59181;SDS011;45293;44.606;21.176;2022-08-21T15:10:57;8.02;;;4.80;;
59181;SDS011;45293;44.606;21.176;2022-08-21T15:13:24;9.43;;;4.57;;
59181;SDS011;45293;44.606;21.176;2022-08-21T15:15:50;8.98;;;4.82;;
59181;SDS011;45293;44.606;21.176;2022-08-21T15:18:18;5.68;;;4.18;;
59181;SDS011;45293;44.606;21.176;2022-08-21T15:20:45;5.28;;;4.38;;
59181;SDS011;45293;44.606;21.176;2022-08-21T15:23:11;4.88;;;3.15;;
59181;SDS011;45293;44.606;21.176;2022-08-21T15:25:39;5.03;;;3.85;;
59181;SDS011;45293;44.606;21.176;2022-08-21T15:28:05;4.07;;;3.42;;
59181;SDS011;45293;44.606;21.176;2022-08-21T15:30:31;6.65;;;4.00;;
59181;SDS011;45293;44.606;21.176;2022-08-21T15:32:58;6.15;;;4.25;;
59181;SDS011;45293;44.606;21.176;2022-08-21T15:35:24;4.53;;;3.70;;
59181;SDS011;45293;44.606;21.176;2022-08-21T15:37:50;5.05;;;3.28;;
59181;SDS011;45293;44.606;21.176;2022-08-21T15:40:16;5.57;;;3.50;;
59181;SDS011;45293;44.606;21.176;2022-08-21T15:42:43;6.70;;;3.80;;
59181;SDS011;45293;44.606;21.176;2022-08-21T15:45:10;3.65;;;3.15;;
59181;SDS011;45293;44.606;21.176;2022-08-21T15:47:37;3.80;;;2.80;;
59181;SDS011;45293;44.606;21.176;2022-08-21T15:50:05;3.28;;;2.60;;
59181;SDS011;45293;44.606;21.176;2022-08-21T15:52:32;2.80;;;2.40;;
59181;SDS011;45293;44.606;21.176;2022-08-21T15:54:58;3.17;;;2.65;;
59181;SDS011;45293;44.606;21.176;2022-08-21T15:57:24;4.93;;;3.22;;
59181;SDS011;45293;44.606;21.176;2022-08-21T15:59:57;4.85;;;2.65;;